Time;durP1;ratioP1;P1;durP2;ratioP2;P2;SDS_P1;SDS_P2;PMS_P1;PMS_P2;Temp;Humidity;BMP_temperature;BMP_pressure;BME280_temperature;BME280_humidity;BME280_pressure;Samples;Min_cycle;Max_cycle;Signal;HPM_P1;HPM_P2
2021/12/01 00:00:23;;;;;;;20.15;3.65;;;;;;;10.47;100.00;99746.47;5074466;28;20044;-38
2021/12/01 00:02:56;;;;;;;17.58;3.67;;;;;;;10.48;100.00;99739.75;5074250;28;20429;-32
2021/12/01 00:05:26;;;;;;;21.15;3.83;;;;;;;10.50;100.00;99748.59;5074219;28;20445;-31
2021/12/01 00:07:55;;;;;;;24.48;4.18;;;;;;;10.49;100.00;99726.63;5074225;28;20491;-35
2021/12/01 00:10:27;;;;;;;18.98;3.80;;;;;;;10.47;100.00;99724.16;5074437;28;20040;-36
2021/12/01 00:12:55;;;;;;;23.45;4.13;;;;;;;10.47;100.00;99709.38;5073829;28;20048;-35
2021/12/01 00:15:23;;;;;;;25.92;3.53;;;;;;;10.48;100.00;99706.28;5074305;28;20047;-32
2021/12/01 00:17:51;;;;;;;24.23;3.95;;;;;;;10.49;100.00;99696.75;5074532;28;20074;-39
2021/12/01 00:20:20;;;;;;;21.13;4.03;;;;;;;10.51;100.00;99685.28;5073512;28;20135;-30
2021/12/01 00:22:49;;;;;;;18.50;3.90;;;;;;;10.50;100.00;99675.25;5074142;28;20040;-36
2021/12/01 00:25:19;;;;;;;22.73;3.78;;;;;;;10.49;100.00;99668.88;5073819;28;20051;-33
2021/12/01 00:27:49;;;;;;;20.08;3.95;;;;;;;10.50;100.00;99667.72;5073714;28;20141;-37
2021/12/01 00:30:18;;;;;;;18.17;2.92;;;;;;;10.49;100.00;99674.44;5074121;28;20059;-32
2021/12/01 00:32:47;;;;;;;20.30;3.65;;;;;;;10.48;100.00;99656.06;5073136;28;20044;-33
2021/12/01 00:35:15;;;;;;;17.52;3.45;;;;;;;10.53;100.00;99653.13;5073933;28;20528;-40
2021/12/01 00:37:44;;;;;;;18.98;3.47;;;;;;;10.54;100.00;99654.75;5073918;28;20075;-34
2021/12/01 00:40:13;;;;;;;19.77;3.33;;;;;;;10.52;100.00;99637.53;5073130;28;20040;-33
2021/12/01 00:42:41;;;;;;;26.70;3.35;;;;;;;10.52;100.00;99615.22;5073752;28;20072;-33
2021/12/01 00:45:16;;;;;;;18.83;3.22;;;;;;;10.55;100.00;99613.75;5073503;28;20131;-32
2021/12/01 00:47:45;;;;;;;15.38;3.15;;;;;;;10.55;100.00;99605.38;5073227;28;20040;-37
2021/12/01 00:50:15;;;;;;;19.85;2.60;;;;;;;10.56;100.00;99607.84;5073581;28;20056;-33
2021/12/01 00:52:43;;;;;;;16.83;3.15;;;;;;;10.55;100.00;99600.63;5073761;28;20044;-33
2021/12/01 00:55:11;;;;;;;19.10;3.30;;;;;;;10.56;100.00;99590.28;5072906;28;20519;-36
2021/12/01 00:57:39;;;;;;;17.70;3.30;;;;;;;10.59;100.00;99589.63;5073534;28;20049;-30
2021/12/01 01:00:11;;;;;;;19.52;2.90;;;;;;;10.58;100.00;99577.66;5072019;28;20045;-35
2021/12/01 01:02:39;;;;;;;21.38;3.70;;;;;;;10.56;100.00;99566.00;5072672;28;20071;-34
2021/12/01 01:05:08;;;;;;;17.02;2.88;;;;;;;10.54;100.00;99573.06;5073254;28;20139;-37
2021/12/01 01:07:36;;;;;;;14.57;2.75;;;;;;;10.54;100.00;99557.13;5073633;28;20063;-34
2021/12/01 01:10:06;;;;;;;17.60;2.88;;;;;;;10.50;100.00;99550.56;5072605;28;20055;-38
2021/12/01 01:18:08;;;;;;;21.58;3.20;;;;;;;10.38;100.00;99532.88;5072454;28;20075;-35
2021/12/01 01:20:36;;;;;;;22.70;3.17;;;;;;;10.37;100.00;99520.91;5073095;28;20057;-34
2021/12/01 01:23:04;;;;;;;17.15;3.15;;;;;;;10.39;100.00;99507.47;5072656;28;20140;-30
2021/12/01 01:25:32;;;;;;;19.27;3.03;;;;;;;10.39;100.00;99496.31;5073120;28;20052;-32
2021/12/01 01:28:00;;;;;;;18.13;2.70;;;;;;;10.44;100.00;99486.94;5072510;28;20067;-32
2021/12/01 01:30:30;;;;;;;13.35;2.70;;;;;;;10.48;100.00;99482.34;5072406;28;20043;-35
2021/12/01 01:32:58;;;;;;;21.23;2.83;;;;;;;10.47;100.00;99473.16;5072933;28;20051;-36
2021/12/01 01:35:26;;;;;;;21.30;3.15;;;;;;;10.51;100.00;99468.53;5072608;28;20557;-35
2021/12/01 01:37:54;;;;;;;18.40;2.75;;;;;;;10.54;100.00;99439.16;5072089;28;20123;-35
2021/12/01 01:40:22;;;;;;;20.17;3.00;;;;;;;10.55;100.00;99449.19;5073304;28;20056;-34
2021/12/01 01:42:50;;;;;;;22.92;3.28;;;;;;;10.54;100.00;99428.00;5072780;28;20055;-31
2021/12/01 01:45:18;;;;;;;23.42;3.40;;;;;;;10.56;100.00;99418.16;5072116;28;20049;-29
2021/12/01 01:47:59;;;;;;;19.13;3.13;;;;;;;10.56;100.00;99442.44;5072642;28;20508;-28
2021/12/01 01:50:35;;;;;;;19.70;3.03;;;;;;;10.54;100.00;99403.72;5071736;28;20060;-37
2021/12/01 01:53:05;;;;;;;20.88;3.05;;;;;;;10.58;100.00;99412.25;5072708;28;20067;-35
2021/12/01 01:55:35;;;;;;;23.92;3.33;;;;;;;10.57;100.00;99405.84;5072557;28;20131;-33
2021/12/01 01:58:03;;;;;;;22.00;2.75;;;;;;;10.61;100.00;99397.63;5071888;28;20055;-36
2021/12/01 02:00:33;;;;;;;17.15;2.97;;;;;;;10.58;100.00;99398.31;5072376;28;20049;-34
2021/12/01 02:03:02;;;;;;;22.67;3.88;;;;;;;10.58;100.00;99385.19;5063012;28;20151;-29
2021/12/01 02:05:30;;;;;;;18.88;2.92;;;;;;;10.59;100.00;99392.38;5071976;28;20040;-32
2021/12/01 02:07:58;;;;;;;15.32;2.80;;;;;;;10.61;100.00;99373.31;5072796;28;20127;-31
2021/12/01 02:10:26;;;;;;;20.40;3.03;;;;;;;10.60;100.00;99366.09;5072047;28;20056;-34
2021/12/01 02:12:54;;;;;;;20.17;2.97;;;;;;;10.59;100.00;99336.56;5067703;28;20044;-37
2021/12/01 02:15:22;;;;;;;22.30;3.83;;;;;;;10.58;100.00;99351.72;5072307;28;20493;-30
2021/12/01 02:17:50;;;;;;;22.42;3.30;;;;;;;10.58;100.00;99350.88;5071518;28;20497;-36
2021/12/01 02:20:20;;;;;;;23.30;3.15;;;;;;;10.55;100.00;99354.34;5060786;28;20044;-33
2021/12/01 02:22:48;;;;;;;20.42;3.00;;;;;;;10.57;100.00;99332.53;5071366;28;20060;-36
2021/12/01 02:25:16;;;;;;;25.45;3.60;;;;;;;10.57;100.00;99321.38;5071814;28;20080;-29
2021/12/01 02:27:44;;;;;;;27.23;3.85;;;;;;;10.56;100.00;99320.53;5071600;28;20405;-32
2021/12/01 02:30:12;;;;;;;27.38;4.07;;;;;;;10.53;100.00;99334.34;5068124;28;20052;-30
2021/12/01 02:32:39;;;;;;;23.45;4.00;;;;;;;10.51;100.00;99292.84;5071324;28;20531;-33
2021/12/01 02:35:08;;;;;;;30.60;4.40;;;;;;;10.51;100.00;99297.59;5071775;28;20040;-30
2021/12/01 02:37:38;;;;;;;24.17;4.13;;;;;;;10.53;100.00;99287.75;5071485;28;20493;-34
2021/12/01 02:40:08;;;;;;;23.45;3.85;;;;;;;10.53;100.00;99279.38;5070681;28;20401;-33
2021/12/01 02:42:36;;;;;;;28.23;4.75;;;;;;;10.51;100.00;99278.91;5071414;28;20098;-32
2021/12/01 02:45:04;;;;;;;28.58;4.18;;;;;;;10.55;100.00;99263.13;5071624;28;20096;-36
2021/12/01 02:47:32;;;;;;;28.52;3.97;;;;;;;10.55;100.00;99265.91;5060281;28;20045;-32
2021/12/01 02:50:00;;;;;;;30.77;4.35;;;;;;;10.54;100.00;99246.72;5071360;28;20411;-37
2021/12/01 02:52:34;;;;;;;24.13;4.35;;;;;;;10.56;100.00;99238.84;5071130;28;20055;-38
2021/12/01 02:55:10;;;;;;;25.05;4.47;;;;;;;10.55;100.00;99229.66;5070623;28;20049;-34
2021/12/01 02:57:45;;;;;;;27.45;3.83;;;;;;;10.51;100.00;99214.75;5071601;28;20132;-35
2021/12/01 03:00:13;;;;;;;26.35;4.28;;;;;;;10.46;100.00;99212.16;5071686;28;20404;-34
2021/12/01 03:02:42;;;;;;;24.20;4.13;;;;;;;10.45;100.00;99202.16;5070477;28;20052;-36
2021/12/01 03:05:10;;;;;;;29.23;4.53;;;;;;;10.42;100.00;99194.47;5071022;28;20056;-31
2021/12/01 03:07:38;;;;;;;37.22;5.40;;;;;;;10.41;100.00;99195.63;5070533;28;20568;-34
2021/12/01 03:10:08;;;;;;;29.27;4.85;;;;;;;10.41;100.00;99170.50;5071324;28;20059;-36
2021/12/01 03:12:39;;;;;;;34.33;4.65;;;;;;;10.41;100.00;99180.84;5070984;28;20048;-34
2021/12/01 03:15:10;;;;;;;33.10;6.10;;;;;;;10.42;100.00;99149.84;5070499;28;20518;-31
2021/12/01 03:17:38;;;;;;;41.22;5.05;;;;;;;10.46;100.00;99150.81;5071097;28;20506;-35
2021/12/01 03:20:09;;;;;;;36.42;5.00;;;;;;;10.48;100.00;99154.06;5070667;28;20041;-37
2021/12/01 03:22:37;;;;;;;24.58;3.90;;;;;;;10.44;100.00;99130.81;5070172;28;20055;-33
2021/12/01 03:25:10;;;;;;;34.90;5.40;;;;;;;10.44;100.00;99122.44;5070705;28;20559;-33
2021/12/01 03:27:39;;;;;;;37.97;5.65;;;;;;;10.41;100.00;99119.50;5060968;28;20068;-34
2021/12/01 03:30:09;;;;;;;34.60;4.95;;;;;;;10.42;100.00;99108.00;5070214;28;20044;-36
2021/12/01 03:32:37;;;;;;;35.15;6.00;;;;;;;10.39;100.00;99102.34;5071369;28;20040;-35
2021/12/01 03:35:08;;;;;;;38.03;6.10;;;;;;;10.38;100.00;99093.16;5070373;28;20045;-35
2021/12/01 03:37:36;;;;;;;37.65;5.65;;;;;;;10.35;100.00;99089.06;5070626;28;20059;-35
2021/12/01 03:40:06;;;;;;;44.80;6.00;;;;;;;10.34;100.00;99069.88;5070737;28;20052;-36
2021/12/01 03:42:36;;;;;;;37.30;6.30;;;;;;;10.36;100.00;99075.94;5070850;28;20036;-35
2021/12/01 03:45:06;;;;;;;37.33;5.60;;;;;;;10.37;100.00;99101.84;5070420;28;20090;-33
2021/12/01 03:47:34;;;;;;;36.85;5.63;;;;;;;10.36;100.00;99062.00;5070270;28;20489;-34
2021/12/01 03:50:02;;;;;;;40.80;5.55;;;;;;;10.34;100.00;99056.75;5070000;28;20070;-39
2021/12/01 03:52:30;;;;;;;43.15;5.80;;;;;;;10.34;100.00;99042.81;5070616;28;20048;-35
2021/12/01 03:54:58;;;;;;;31.15;4.82;;;;;;;10.33;100.00;99041.19;5069382;28;20058;-36
2021/12/01 03:57:26;;;;;;;34.50;4.70;;;;;;;10.34;100.00;99025.28;5069931;28;20048;-41
2021/12/01 03:59:55;;;;;;;42.78;5.80;;;;;;;10.32;100.00;99050.72;5070368;28;20053;-32
2021/12/01 04:02:23;;;;;;;44.08;5.65;;;;;;;10.32;100.00;99038.75;5070492;28;20405;-38
2021/12/01 04:04:51;;;;;;;41.42;5.88;;;;;;;10.30;100.00;99024.34;5070126;28;20127;-32
2021/12/01 04:07:19;;;;;;;37.45;5.05;;;;;;;10.29;100.00;99020.72;5070333;28;20555;-34
2021/12/01 04:09:47;;;;;;;34.08;5.32;;;;;;;10.32;100.00;99003.31;5070435;28;20043;-35
2021/12/01 04:12:14;;;;;;;37.03;5.40;;;;;;;10.32;100.00;99011.69;5068459;28;20386;-35
2021/12/01 04:14:42;;;;;;;40.20;6.43;;;;;;;10.32;100.00;98988.56;5070703;28;20084;-39
2021/12/01 04:17:11;;;;;;;38.85;5.15;;;;;;;10.33;100.00;98979.03;5070278;28;20052;-31
2021/12/01 04:19:39;;;;;;;35.83;5.43;;;;;;;10.35;100.00;98971.16;5069838;28;20421;-35
2021/12/01 04:22:10;;;;;;;34.78;5.15;;;;;;;10.39;100.00;98974.06;5070237;28;20052;-34
2021/12/01 04:24:38;;;;;;;32.20;4.68;;;;;;;10.36;100.00;98989.50;5070438;28;20041;-33
2021/12/01 04:27:10;;;;;;;28.65;4.65;;;;;;;10.33;100.00;98973.47;5069656;28;20040;-30
2021/12/01 04:29:38;;;;;;;24.33;4.70;;;;;;;10.35;100.00;98962.78;5059936;28;20079;-34
2021/12/01 04:32:08;;;;;;;35.30;4.70;;;;;;;10.34;100.00;98961.16;5069395;28;20052;-37
2021/12/01 04:34:37;;;;;;;31.65;5.13;;;;;;;10.32;100.00;98955.94;5071866;28;20059;-30
2021/12/01 04:37:06;;;;;;;35.47;4.15;;;;;;;10.31;100.00;98942.31;5073671;28;20233;-40
2021/12/01 04:39:34;;;;;;;27.95;4.07;;;;;;;10.35;100.00;98927.38;5073369;28;20052;-32
2021/12/01 04:42:05;;;;;;;27.80;3.72;;;;;;;10.36;100.00;98944.91;5073724;28;20560;-31
2021/12/01 04:44:35;;;;;;;30.48;3.97;;;;;;;10.37;100.00;98924.22;5073162;28;20152;-33
2021/12/01 04:47:08;;;;;;;25.02;4.60;;;;;;;10.40;100.00;98917.94;5073149;28;20054;-36
2021/12/01 04:49:39;;;;;;;29.70;3.83;;;;;;;10.42;100.00;98931.53;5073589;28;20051;-33
2021/12/01 04:52:09;;;;;;;22.27;3.53;;;;;;;10.40;100.00;98909.56;5073706;28;20091;-32
2021/12/01 04:54:38;;;;;;;20.50;2.97;;;;;;;10.29;100.00;98912.00;5073293;28;20396;-38
2021/12/01 04:57:07;;;;;;;18.13;3.00;;;;;;;10.20;100.00;98893.72;5073449;28;20057;-34
2021/12/01 04:59:37;;;;;;;29.73;3.13;;;;;;;10.16;100.00;98881.63;5072414;28;20049;-28
2021/12/01 05:02:05;;;;;;;19.65;2.80;;;;;;;10.09;100.00;98867.44;5071461;28;20489;-37
2021/12/01 05:04:33;;;;;;;21.73;3.10;;;;;;;10.05;100.00;98867.31;5073215;28;20072;-30
2021/12/01 05:07:02;;;;;;;36.75;4.63;;;;;;;10.10;100.00;98866.28;5073280;28;20056;-38
2021/12/01 05:09:30;;;;;;;26.38;3.35;;;;;;;10.19;100.00;98855.91;5073479;28;20060;-34
2021/12/01 05:11:58;;;;;;;28.48;4.05;;;;;;;10.25;100.00;98841.38;5073119;28;20513;-35
2021/12/01 05:14:27;;;;;;;32.30;4.30;;;;;;;10.27;100.00;98836.25;5072652;28;20049;-39
2021/12/01 05:16:55;;;;;;;25.20;3.40;;;;;;;10.30;100.00;98829.19;5072885;28;20481;-30
2021/12/01 05:19:23;;;;;;;23.30;3.55;;;;;;;10.33;100.00;98825.72;5073204;28;20040;-36
2021/12/01 05:21:51;;;;;;;22.92;3.60;;;;;;;10.33;100.00;98825.72;5073038;28;20047;-35
2021/12/01 05:24:23;;;;;;;26.02;3.42;;;;;;;10.34;100.00;98819.78;5070530;28;20059;-33
2021/12/01 05:26:51;;;;;;;24.88;3.10;;;;;;;10.34;100.00;98807.81;5072857;28;20572;-30
2021/12/01 05:29:20;;;;;;;25.73;3.60;;;;;;;10.38;100.00;98799.59;5071142;28;20033;-40
2021/12/01 05:31:49;;;;;;;24.60;4.10;;;;;;;10.39;100.00;98793.66;5073199;28;20056;-32
2021/12/01 05:34:17;;;;;;;30.95;3.70;;;;;;;10.42;100.00;98783.75;5072739;28;20045;-28
2021/12/01 05:36:44;;;;;;;27.20;3.65;;;;;;;10.42;100.00;98784.56;5072440;28;20507;-32
2021/12/01 05:39:12;;;;;;;23.63;3.63;;;;;;;10.43;100.00;98782.59;5072507;28;20441;-31
2021/12/01 05:41:41;;;;;;;23.45;3.20;;;;;;;10.41;100.00;98774.59;5072832;28;20041;-38
2021/12/01 05:44:09;;;;;;;27.75;4.38;;;;;;;10.42;100.00;98773.41;5071665;28;20043;-35
2021/12/01 05:46:37;;;;;;;24.88;3.38;;;;;;;10.40;100.00;98767.38;5071793;28;20481;-29
2021/12/01 05:49:05;;;;;;;26.60;3.50;;;;;;;10.44;100.00;98775.88;5072591;28;20131;-32
2021/12/01 05:51:33;;;;;;;22.85;4.38;;;;;;;10.39;100.00;98770.53;5071958;28;20041;-29
2021/12/01 05:54:01;;;;;;;29.15;4.07;;;;;;;10.44;100.00;98759.94;5071334;28;20053;-34
2021/12/01 05:56:30;;;;;;;25.73;3.67;;;;;;;10.42;100.00;98747.50;5070620;28;20060;-30
2021/12/01 05:58:59;;;;;;;29.65;4.35;;;;;;;10.45;100.00;98763.53;5071417;28;20053;-33
2021/12/01 06:01:27;;;;;;;29.00;3.80;;;;;;;10.46;100.00;98731.72;5071238;28;20052;-34
2021/12/01 06:03:55;;;;;;;20.67;3.92;;;;;;;10.44;100.00;98729.28;5070169;28;20059;-36
2021/12/01 06:06:23;;;;;;;22.73;3.90;;;;;;;10.49;100.00;98743.00;5071041;28;20072;-38
2021/12/01 06:08:51;;;;;;;21.23;3.50;;;;;;;10.51;100.00;98718.34;5070932;28;20048;-33
2021/12/01 06:11:21;;;;;;;31.23;4.22;;;;;;;10.53;100.00;98721.59;5070582;28;20178;-35
2021/12/01 06:13:51;;;;;;;29.98;4.22;;;;;;;10.54;100.00;98728.81;5070963;28;20051;-31
2021/12/01 06:16:21;;;;;;;19.63;3.53;;;;;;;10.56;100.00;98725.69;5068690;28;20041;-32
2021/12/01 06:18:50;;;;;;;18.38;3.17;;;;;;;10.60;100.00;98712.63;5070534;28;20048;-30
2021/12/01 06:21:18;;;;;;;26.90;4.60;;;;;;;10.57;100.00;98711.38;5070707;28;20488;-34
2021/12/01 06:23:46;;;;;;;23.52;3.67;;;;;;;10.55;100.00;98701.75;5070883;28;20044;-36
2021/12/01 06:26:14;;;;;;;20.33;3.45;;;;;;;10.59;100.00;98692.28;5070244;28;20048;-35
2021/12/01 06:28:42;;;;;;;21.88;4.65;;;;;;;10.55;100.00;98694.19;5070693;28;20052;-32
2021/12/01 06:31:10;;;;;;;24.60;4.20;;;;;;;10.55;100.00;98690.59;5070333;28;20056;-33
2021/12/01 06:33:40;;;;;;;23.70;3.53;;;;;;;10.57;100.00;98679.91;5070179;28;20053;-30
2021/12/01 06:36:07;;;;;;;19.48;3.40;;;;;;;10.55;100.00;98677.44;5070927;28;20049;-35
2021/12/01 06:38:35;;;;;;;17.90;2.72;;;;;;;10.55;100.00;98679.44;5070486;28;20055;-33
2021/12/01 06:41:03;;;;;;;19.73;3.50;;;;;;;10.51;100.00;98672.94;5069973;28;20040;-37
2021/12/01 06:43:31;;;;;;;23.88;3.78;;;;;;;10.51;100.00;98670.94;5070641;28;20037;-31
2021/12/01 06:45:59;;;;;;;22.38;3.22;;;;;;;10.51;100.00;98664.56;5070588;28;20102;-36
2021/12/01 06:48:26;;;;;;;17.08;2.60;;;;;;;10.51;100.00;98637.50;5071090;28;20413;-37
2021/12/01 06:50:56;;;;;;;17.42;3.05;;;;;;;10.51;100.00;98634.69;5071316;28;20080;-34
2021/12/01 06:53:23;;;;;;;16.52;3.85;;;;;;;10.53;100.00;98642.72;5070528;28;20489;-34
2021/12/01 06:55:51;;;;;;;22.88;3.55;;;;;;;10.44;100.00;98628.09;5071345;28;20131;-36
2021/12/01 06:58:19;;;;;;;22.65;3.33;;;;;;;10.34;100.00;98629.41;5070397;28;20123;-37
2021/12/01 07:00:47;;;;;;;18.02;3.50;;;;;;;10.36;100.00;98657.75;5070629;28;20083;-33
2021/12/01 07:03:15;;;;;;;21.08;3.63;;;;;;;10.14;100.00;98663.78;5070996;28;20185;-36
2021/12/01 07:05:43;;;;;;;21.98;3.72;;;;;;;9.90;100.00;98668.22;5071249;28;20048;-36
2021/12/01 07:08:12;;;;;;;17.98;3.10;;;;;;;9.77;100.00;98652.66;5061802;28;20055;-36
2021/12/01 07:10:40;;;;;;;23.38;3.08;;;;;;;9.73;100.00;98642.56;5071024;28;20048;-35
2021/12/01 07:13:08;;;;;;;18.45;2.92;;;;;;;9.70;100.00;98638.50;5070828;28;20047;-35
2021/12/01 07:15:35;;;;;;;12.95;2.50;;;;;;;9.58;100.00;98641.28;5069342;28;20044;-34
2021/12/01 07:18:03;;;;;;;19.33;2.63;;;;;;;9.55;100.00;98628.88;5067180;28;20063;-36
2021/12/01 07:20:31;;;;;;;14.60;2.85;;;;;;;9.49;100.00;98633.03;5071177;28;20055;-32
2021/12/01 07:22:59;;;;;;;18.65;2.65;;;;;;;9.51;100.00;98638.25;5070022;28;20413;-31
2021/12/01 07:25:28;;;;;;;17.08;2.60;;;;;;;9.52;100.00;98628.75;5070531;28;20054;-37
2021/12/01 07:27:55;;;;;;;16.73;2.35;;;;;;;9.48;100.00;98641.72;5069352;28;20044;-34
2021/12/01 07:30:23;;;;;;;16.05;2.40;;;;;;;9.44;100.00;98682.53;5070429;28;20073;-33
2021/12/01 07:32:51;;;;;;;20.38;3.42;;;;;;;9.36;100.00;98687.06;5070236;28;20044;-36
2021/12/01 07:35:19;;;;;;;14.65;2.40;;;;;;;9.22;100.00;98665.09;5069482;28;20464;-34
2021/12/01 07:37:49;;;;;;;21.23;3.03;;;;;;;9.08;100.00;98669.34;5069391;28;20083;-35
2021/12/01 07:40:17;;;;;;;21.98;3.35;;;;;;;9.06;100.00;98661.34;5069374;28;20425;-34
2021/12/01 07:42:46;;;;;;;19.00;2.92;;;;;;;9.04;100.00;98671.19;5070075;28;20048;-32
2021/12/01 07:45:14;;;;;;;23.65;3.00;;;;;;;9.02;100.00;98651.22;5070608;28;20049;-33
2021/12/01 07:47:42;;;;;;;17.52;3.75;;;;;;;8.99;100.00;98664.66;5070800;28;20067;-32
2021/12/01 07:50:10;;;;;;;25.45;3.53;;;;;;;9.04;100.00;98658.09;5069984;28;20052;-33
2021/12/01 07:52:39;;;;;;;14.65;2.80;;;;;;;9.03;100.00;98658.44;5070619;28;20045;-35
2021/12/01 07:55:08;;;;;;;21.50;3.08;;;;;;;8.97;100.00;98650.31;5070323;28;20382;-31
2021/12/01 07:57:36;;;;;;;22.42;3.10;;;;;;;8.99;100.00;98653.53;5069885;28;20051;-31
2021/12/01 08:00:07;;;;;;;22.63;2.72;;;;;;;8.99;100.00;98661.09;5070591;28;20086;-39
2021/12/01 08:02:35;;;;;;;18.67;3.95;;;;;;;8.99;100.00;98666.66;5070681;28;20053;-34
2021/12/01 08:05:04;;;;;;;12.77;2.83;;;;;;;9.01;100.00;98663.50;5060848;28;20044;-34
2021/12/01 08:07:35;;;;;;;20.30;2.58;;;;;;;8.96;100.00;98657.03;5070384;28;20057;-36
2021/12/01 08:10:03;;;;;;;24.45;3.33;;;;;;;8.94;100.00;98661.31;5072347;28;20055;-40
2021/12/01 08:12:32;;;;;;;19.95;3.10;;;;;;;8.97;100.00;98661.44;5074280;28;20056;-35
2021/12/01 08:15:00;;;;;;;17.23;2.58;;;;;;;9.01;100.00;98671.88;5074235;28;20128;-32
2021/12/01 08:17:29;;;;;;;15.20;3.08;;;;;;;9.01;100.00;98689.38;5073586;28;20045;-38
2021/12/01 08:19:58;;;;;;;17.20;1.92;;;;;;;8.92;100.00;98692.25;5074076;28;20123;-35
2021/12/01 08:22:26;;;;;;;19.75;2.83;;;;;;;8.82;100.00;98673.19;5074229;28;20398;-34
2021/12/01 08:24:54;;;;;;;20.50;2.53;;;;;;;8.80;100.00;98677.47;5073377;28;20494;-36
2021/12/01 08:27:22;;;;;;;17.80;2.90;;;;;;;8.82;100.00;98675.97;5074172;28;20417;-33
2021/12/01 08:29:50;;;;;;;16.13;2.17;;;;;;;8.84;100.00;98684.78;5073625;28;20091;-38
2021/12/01 08:32:18;;;;;;;16.45;2.60;;;;;;;8.84;100.00;98684.78;5073551;28;20097;-36
2021/12/01 08:34:49;;;;;;;18.80;2.90;;;;;;;8.87;100.00;98672.16;5068415;28;20052;-35
2021/12/01 08:37:19;;;;;;;24.45;3.65;;;;;;;8.91;100.00;98689.81;5073079;28;20065;-36
2021/12/01 08:39:48;;;;;;;23.95;3.42;;;;;;;8.96;100.00;98693.19;5073287;28;20135;-34
2021/12/01 08:42:16;;;;;;;19.25;3.08;;;;;;;8.97;100.00;98689.25;5073522;28;20048;-34
2021/12/01 08:44:45;;;;;;;23.77;3.10;;;;;;;9.01;100.00;98694.13;5073516;28;20537;-32
2021/12/01 08:47:13;;;;;;;24.20;3.05;;;;;;;9.03;100.00;98709.31;5072932;28;20061;-36
2021/12/01 08:49:40;;;;;;;17.70;2.80;;;;;;;9.08;100.00;98713.84;5073912;28;20066;-39
2021/12/01 08:52:10;;;;;;;21.33;3.00;;;;;;;9.09;100.00;98718.28;5072375;28;20037;-36
2021/12/01 08:54:38;;;;;;;24.85;3.40;;;;;;;9.09;100.00;98715.50;5072510;28;20048;-32
2021/12/01 08:57:06;;;;;;;20.88;2.75;;;;;;;9.11;100.00;98721.53;5072440;28;20045;-38
2021/12/01 08:59:35;;;;;;;20.30;3.17;;;;;;;9.13;100.00;98710.88;5071696;28;20424;-32
2021/12/01 09:02:03;;;;;;;21.90;3.10;;;;;;;9.14;100.00;98723.63;5072256;28;20143;-31
2021/12/01 09:04:31;;;;;;;20.38;3.00;;;;;;;9.16;100.00;98746.38;5072330;28;20045;-33
2021/12/01 09:06:59;;;;;;;24.85;3.70;;;;;;;9.19;100.00;98751.25;5071887;28;20087;-34
2021/12/01 09:09:28;;;;;;;23.33;3.53;;;;;;;9.13;100.00;98741.47;5072534;28;20048;-35
2021/12/01 09:11:56;;;;;;;21.88;3.05;;;;;;;9.06;100.00;98735.63;5071947;28;20496;-37
2021/12/01 09:14:25;;;;;;;28.00;4.10;;;;;;;9.02;100.00;98732.72;5071364;28;20497;-36
2021/12/01 09:16:55;;;;;;;16.00;3.03;;;;;;;9.04;100.00;98743.50;5070865;28;20045;-37
2021/12/01 09:19:23;;;;;;;18.67;3.05;;;;;;;8.98;100.00;98745.72;5072507;28;20052;-33
2021/12/01 09:21:51;;;;;;;15.70;3.08;;;;;;;8.96;100.00;98748.00;5070255;28;20045;-30
2021/12/01 09:24:20;;;;;;;25.05;3.38;;;;;;;8.98;100.00;98745.72;5072132;28;20049;-32
2021/12/01 09:26:50;;;;;;;13.82;2.33;;;;;;;8.99;100.00;98747.34;5071405;28;20155;-29
2021/12/01 09:29:18;;;;;;;18.70;3.00;;;;;;;8.98;100.00;98752.09;5071279;28;20048;-34
2021/12/01 09:31:46;;;;;;;21.23;2.97;;;;;;;9.04;100.00;98749.88;5069481;28;20055;-33
2021/12/01 09:34:14;;;;;;;24.45;3.42;;;;;;;9.06;100.00;98755.94;5071967;28;20040;-38
2021/12/01 09:36:42;;;;;;;17.70;2.70;;;;;;;9.06;100.00;98766.25;5071242;28;20048;-38
2021/12/01 09:39:09;;;;;;;22.77;3.13;;;;;;;9.01;100.00;98766.44;5071518;28;20520;-32
2021/12/01 09:41:38;;;;;;;18.67;2.58;;;;;;;8.97;100.00;98760.78;5070633;28;20045;-33
2021/12/01 09:44:07;;;;;;;24.48;3.30;;;;;;;8.97;100.00;98761.59;5071692;28;20060;-34
2021/12/01 09:46:35;;;;;;;25.88;3.70;;;;;;;8.97;100.00;98753.25;5070085;28;20049;-32
2021/12/01 09:49:03;;;;;;;23.35;3.85;;;;;;;8.97;100.00;98755.22;5069502;28;20105;-32
2021/12/01 09:51:31;;;;;;;27.83;4.07;;;;;;;8.99;100.00;98753.69;5071086;28;20060;-32
2021/12/01 09:54:00;;;;;;;30.27;4.10;;;;;;;9.05;100.00;98756.28;5070977;28;20050;-35
2021/12/01 09:56:29;;;;;;;20.48;4.18;;;;;;;9.05;100.00;98757.09;5070722;28;20500;-30
2021/12/01 09:58:57;;;;;;;24.05;3.40;;;;;;;9.10;100.00;98751.31;5071253;28;20558;-36
2021/12/01 10:01:28;;;;;;;32.97;4.38;;;;;;;9.14;100.00;98738.34;5071131;28;20045;-37
2021/12/01 10:03:56;;;;;;;18.17;3.40;;;;;;;9.16;100.00;98757.50;5070102;28;20064;-31
2021/12/01 10:06:26;;;;;;;19.65;3.50;;;;;;;9.15;100.00;98742.78;5071032;28;20043;-37
2021/12/01 10:08:56;;;;;;;26.80;4.10;;;;;;;9.20;100.00;98738.94;5071145;28;20056;-35
2021/12/01 10:11:26;;;;;;;22.83;3.67;;;;;;;9.21;100.00;98772.00;5070899;28;20048;-37
2021/12/01 10:13:58;;;;;;;26.50;4.05;;;;;;;9.24;100.00;98735.13;5067233;28;20044;-37
2021/12/01 10:16:28;;;;;;;;;;;;;;;9.23;100.00;98752.97;5071220;28;20552;-35
2021/12/01 10:18:57;;;;;;;26.00;4.07;;;;;;;9.25;100.00;98744.28;5069434;28;19921;-38
2021/12/01 10:21:31;;;;;;;28.20;4.22;;;;;;;9.31;100.00;98748.50;5071251;28;20052;-32
2021/12/01 10:24:02;;;;;;;23.30;4.15;;;;;;;9.29;100.00;98734.13;5070292;28;20049;-32
2021/12/01 10:26:32;;;;;;;20.08;2.97;;;;;;;9.32;100.00;98739.81;5060314;28;20048;-35
2021/12/01 10:29:01;;;;;;;24.15;3.80;;;;;;;9.33;100.00;98752.56;5070239;28;20056;-35
2021/12/01 10:31:37;;;;;;;20.73;3.30;;;;;;;9.38;100.00;98739.59;5069652;28;20489;-32
2021/12/01 10:34:25;;;;;;;27.02;4.20;;;;;;;9.41;100.00;98736.13;5070293;28;20444;-35
2021/12/01 10:37:09;;;;;;;22.98;4.10;;;;;;;9.43;100.00;98742.16;5059782;28;20120;-35
2021/12/01 10:39:37;;;;;;;24.80;3.97;;;;;;;9.43;100.00;98745.75;5070049;28;20401;-30
2021/12/01 10:42:08;;;;;;;30.77;4.35;;;;;;;9.43;100.00;98736.59;5071810;28;20091;-33
2021/12/01 10:44:36;;;;;;;29.65;4.43;;;;;;;9.42;100.00;98724.63;5070936;28;20485;-33
2021/12/01 10:47:10;;;;;;;23.85;3.88;;;;;;;9.46;100.00;98747.03;5069559;28;20478;-33
2021/12/01 10:49:40;;;;;;;29.13;4.55;;;;;;;9.47;100.00;98754.22;5069791;28;20489;-36
2021/12/01 10:52:29;;;;;;;21.05;3.50;;;;;;;9.45;100.00;98742.63;5069301;28;20041;-36
2021/12/01 10:55:04;;;;;;;18.02;3.30;;;;;;;9.44;100.00;98757.69;5070579;28;20048;-39
2021/12/01 10:57:32;;;;;;;25.10;3.83;;;;;;;9.48;100.00;98747.50;5060373;28;20049;-31
2021/12/01 11:00:01;;;;;;;27.27;3.80;;;;;;;9.53;100.00;98744.50;5070468;28;20097;-35
2021/12/01 11:02:35;;;;;;;21.40;4.05;;;;;;;9.56;100.00;98741.03;5070907;28;20501;-34
2021/12/01 11:05:03;;;;;;;27.80;4.20;;;;;;;9.54;100.00;98741.38;5071047;28;20451;-33
2021/12/01 11:07:32;;;;;;;27.50;4.28;;;;;;;9.52;100.00;98735.34;5070585;28;20039;-29
2021/12/01 11:10:11;;;;;;;30.08;3.85;;;;;;;9.54;100.00;98754.50;5070913;28;20052;-33
2021/12/01 11:12:39;;;;;;;23.58;3.85;;;;;;;9.54;100.00;98766.44;5068277;28;20049;-34
2021/12/01 11:15:26;;;;;;;26.30;4.22;;;;;;;9.56;100.00;98766.09;5070671;28;20101;-36
2021/12/01 11:17:56;;;;;;;31.58;4.85;;;;;;;9.57;100.00;98774.13;5071262;28;20454;-29
2021/12/01 11:20:36;;;;;;;22.25;3.60;;;;;;;9.52;100.00;98779.91;5070115;28;20451;-32
2021/12/01 11:23:20;;;;;;;16.08;2.63;;;;;;;9.45;100.00;98767.69;5068505;28;20047;-34
2021/12/01 11:25:51;;;;;;;20.42;3.15;;;;;;;9.41;100.00;98783.44;5070384;28;20067;-39
2021/12/01 11:28:21;;;;;;;15.63;3.13;;;;;;;9.43;100.00;98775.56;5070388;28;20574;-38
2021/12/01 11:30:52;;;;;;;17.38;2.72;;;;;;;9.44;100.00;98782.75;5070537;28;20505;-34
2021/12/01 11:33:23;;;;;;;16.98;2.60;;;;;;;9.45;100.00;98778.81;5070911;28;20048;-35
2021/12/01 11:35:53;;;;;;;18.55;3.22;;;;;;;9.48;100.00;98786.47;5070212;28;20546;-32